createdAt,value
2023-03-24T00:54:09.863Z,95883.56
2023-03-24T00:56:40.518Z,95877.97
2023-03-24T00:59:10.019Z,95871.31
2023-03-24T01:01:41.150Z,95873.59
2023-03-24T01:04:10.130Z,95870.19
2023-03-24T01:12:18.263Z,95846.72
2023-03-24T01:14:52.186Z,95842.28
2023-03-24T01:17:30.820Z,95842.06
2023-03-24T01:20:01.864Z,95840.44
2023-03-24T01:22:40.086Z,95839.06
2023-03-24T01:25:17.759Z,95830.88
2023-03-24T01:28:01.676Z,95829.25
2023-03-24T01:30:38.670Z,95820.81
2023-03-24T01:33:26.400Z,95822.19
2023-03-24T01:36:04.204Z,95812.06
2023-03-24T01:38:34.910Z,95806.94
2023-03-24T01:41:09.912Z,95798.66
2023-03-24T01:43:51.330Z,95797.63
2023-03-24T01:46:28.361Z,95796.38
2023-03-24T01:49:04.065Z,95783.84
2023-03-24T01:51:42.921Z,95781.00
2023-03-24T01:54:25.556Z,95763.22
2023-03-24T01:57:08.579Z,95768.59
2023-03-24T01:59:46.285Z,95766.53
2023-03-24T02:02:22.790Z,95763.72
2023-03-24T02:05:08.824Z,95768.16
2023-03-24T02:07:56.984Z,95762.34
2023-03-24T02:10:34.882Z,95757.66
2023-03-24T02:13:15.057Z,95757.22
2023-03-24T02:16:12.070Z,95758.81
2023-03-24T02:22:15.284Z,95745.25
2023-03-24T02:25:30.557Z,95736.91
2023-03-24T02:28:35.421Z,95738.41
2023-03-24T02:31:40.122Z,95731.19
2023-03-24T03:49:50.818Z,95683.19
2023-03-24T03:52:18.999Z,95688.66
2023-03-24T03:54:47.303Z,95693.09
2023-03-24T03:57:15.991Z,95696.50
2023-03-24T03:59:43.862Z,95696.72
2023-03-24T04:02:29.700Z,95686.81
2023-03-24T04:05:27.671Z,95691.84
2023-03-24T04:08:14.542Z,95690.47
2023-03-24T04:11:09.941Z,95683.63
2023-03-24T04:13:46.562Z,95683.63
2023-03-24T04:16:21.788Z,95675.53
2023-03-24T04:19:09.783Z,95682.97
2023-03-24T04:21:51.755Z,95677.47
2023-03-24T04:24:29.157Z,95678.63
2023-03-24T04:27:00.705Z,95681.63
2023-03-24T04:29:37.006Z,95690.06
2023-03-24T04:32:11.294Z,95683.78
2023-03-24T04:34:45.138Z,95681.94
2023-03-24T04:37:18.956Z,95681.72
2023-03-24T04:39:49.737Z,95677.53
2023-03-24T04:42:21.903Z,95676.47
2023-03-24T04:44:51.647Z,95680.47
2023-03-24T04:47:22.831Z,95680.25
2023-03-24T04:49:50.669Z,95689.28
2023-03-24T04:52:19.625Z,95692.47
2023-03-24T04:54:47.222Z,95685.97
2023-03-24T04:57:14.726Z,95692.34
2023-03-24T04:59:43.114Z,95695.78
2023-03-24T05:02:10.942Z,95705.47
2023-03-24T05:04:38.553Z,95699.19
2023-03-24T05:07:06.163Z,95685.06
2023-03-24T05:09:35.096Z,95695.09
2023-03-24T05:12:02.666Z,95671.47
2023-03-24T05:14:30.258Z,95659.16
2023-03-24T05:16:57.850Z,95664.84
2023-03-24T05:19:25.424Z,95654.84
2023-03-24T05:21:54.025Z,95655.75
2023-03-24T05:24:22.368Z,95661.44
2023-03-24T05:26:51.350Z,95662.69
2023-03-24T05:29:18.893Z,95668.41
2023-03-24T05:31:46.537Z,95672.84
2023-03-24T05:34:14.180Z,95687.19
2023-03-24T05:36:41.724Z,95685.81
2023-03-24T05:39:09.318Z,95682.88
2023-03-24T05:41:36.891Z,95678.06
2023-03-24T05:44:06.122Z,95672.25
2023-03-24T05:46:33.754Z,95672.25
2023-03-24T05:49:01.352Z,95675.66
2023-03-24T05:51:28.969Z,95684.78
2023-03-24T05:53:57.083Z,95684.44
2023-03-24T05:56:24.709Z,95691.28
2023-03-24T05:58:52.484Z,95696.50
2023-03-24T06:01:21.282Z,95709.63
2023-03-24T06:03:49.173Z,95712.25
2023-03-24T06:06:17.076Z,95729.13
2023-03-24T06:08:45.878Z,95756.16
2023-03-24T06:11:13.635Z,95776.44
2023-03-24T06:13:41.257Z,95780.22
2023-03-24T06:16:10.007Z,95789.03
2023-03-24T06:18:40.530Z,95792.56
2023-03-24T06:21:08.516Z,95800.00
2023-03-24T06:23:36.137Z,95795.34
2023-03-24T06:26:10.137Z,95811.09
2023-03-24T06:28:39.819Z,95804.22
2023-03-24T06:31:14.828Z,95815.19
2023-03-24T06:33:43.948Z,95814.47
2023-03-24T06:36:13.312Z,95819.81
2023-03-24T06:38:41.933Z,95819.00
2023-03-24T06:41:09.960Z,95822.66
2023-03-24T06:43:37.522Z,95820.25
2023-03-24T06:46:05.395Z,95813.03
2023-03-24T06:48:33.668Z,95812.25
2023-03-24T06:51:02.570Z,95820.34
2023-03-24T06:53:30.390Z,95807.44
2023-03-24T06:55:58.005Z,95817.13
2023-03-24T06:58:25.575Z,95816.13
2023-03-24T07:00:53.758Z,95819.53
2023-03-24T07:03:22.686Z,95815.53
2023-03-24T07:05:50.457Z,95823.16
2023-03-24T07:08:36.522Z,95817.72
2023-03-24T07:11:06.976Z,95819.88
2023-03-24T07:13:34.532Z,95826.53
2023-03-24T07:16:02.057Z,95826.28
2023-03-24T07:18:29.654Z,95825.06
2023-03-24T07:20:57.687Z,95824.59
2023-03-24T07:23:27.619Z,95827.81
2023-03-24T07:25:55.511Z,95814.47
2023-03-24T07:28:23.024Z,95823.13
2023-03-24T07:30:51.617Z,95823.34
2023-03-24T07:33:24.227Z,95816.63
2023-03-24T07:35:55.563Z,95814.38
2023-03-24T07:38:23.183Z,95816.75
2023-03-24T07:40:52.038Z,95823.84
2023-03-24T07:43:19.620Z,95827.63
2023-03-24T07:45:47.486Z,95824.31
2023-03-24T07:48:15.581Z,95831.50
2023-03-24T07:50:43.537Z,95831.09
2023-03-24T07:53:11.280Z,95837.13
2023-03-24T07:55:39.104Z,95842.94
2023-03-24T07:58:08.119Z,95854.03
2023-03-24T08:00:35.621Z,95855.59
2023-03-24T08:03:03.573Z,95862.91
2023-03-24T08:05:31.550Z,95864.16
2023-03-24T08:08:00.168Z,95868.03
2023-03-24T08:10:29.723Z,95880.56
2023-03-24T08:12:58.182Z,95880.44
2023-03-24T08:15:28.176Z,95887.94
2023-03-24T08:17:56.728Z,95881.75
2023-03-24T08:20:25.290Z,95892.13
2023-03-24T08:22:54.395Z,95896.09
2023-03-24T08:25:24.491Z,95900.97
2023-03-24T08:27:52.619Z,95900.63
2023-03-24T08:30:22.092Z,95897.41
2023-03-24T08:32:54.015Z,95901.50
2023-03-24T08:35:24.716Z,95900.91
2023-03-24T08:37:52.728Z,95898.72
2023-03-24T08:40:24.003Z,95907.81
2023-03-24T08:42:54.290Z,95908.59
2023-03-24T08:45:23.851Z,95902.56
2023-03-24T08:47:53.519Z,95899.38
2023-03-24T08:50:23.788Z,95900.81
2023-03-24T08:52:51.515Z,95885.34
2023-03-24T08:55:20.297Z,95901.66
2023-03-24T08:57:48.829Z,95901.66
2023-03-24T09:00:18.380Z,95896.41
2023-03-24T09:02:48.524Z,95893.53
2023-03-24T09:05:21.301Z,95891.50
2023-03-24T09:07:52.719Z,95881.00
2023-03-24T09:10:22.513Z,95870.53
2023-03-24T09:12:50.836Z,95863.81
2023-03-24T09:15:18.519Z,95862.94
2023-03-24T09:17:46.253Z,95846.56
2023-03-24T09:20:16.017Z,95828.31
2023-03-24T09:22:47.218Z,95820.03
2023-03-24T09:25:17.771Z,95783.66
2023-03-24T09:27:46.190Z,95779.34
2023-03-24T09:30:15.714Z,95812.75
2023-03-24T09:32:43.382Z,95817.22
2023-03-24T09:35:11.258Z,95817.66
2023-03-24T09:37:39.816Z,95841.84
2023-03-24T09:40:15.999Z,95848.25
2023-03-24T09:42:45.712Z,95866.97
2023-03-24T09:45:17.808Z,95854.22
2023-03-24T09:47:50.282Z,95857.75
2023-03-24T09:50:22.685Z,95857.53
2023-03-24T09:52:54.873Z,95853.28
2023-03-24T09:55:26.620Z,95852.28
2023-03-24T09:57:56.697Z,95852.38
2023-03-24T10:00:27.891Z,95837.44
2023-03-24T10:03:00.565Z,95843.72
2023-03-24T10:05:34.085Z,95836.44
2023-03-24T10:08:12.118Z,95841.69
2023-03-24T10:10:50.237Z,95850.09
2023-03-24T10:13:22.305Z,95850.56
2023-03-24T10:15:57.127Z,95857.16
2023-03-24T10:18:34.609Z,95837.91
2023-03-24T10:21:07.246Z,95843.06
2023-03-24T10:23:41.480Z,95850.06
2023-03-24T10:26:27.553Z,95858.63
2023-03-24T10:29:07.472Z,95855.81
2023-03-24T10:31:38.772Z,95857.75
2023-03-24T10:34:07.850Z,95838.25
2023-03-24T10:36:44.194Z,95841.31
2023-03-24T10:39:19.938Z,95843.63
2023-03-24T10:41:50.964Z,95834.94
2023-03-24T10:44:19.560Z,95843.84
2023-03-24T10:46:50.557Z,95840.97
2023-03-24T10:49:20.265Z,95839.50
2023-03-24T10:51:50.104Z,95837.28
2023-03-24T10:54:20.001Z,95838.19
2023-03-24T10:56:49.314Z,95840.75
2023-03-24T10:59:27.457Z,95832.88
2023-03-24T11:02:04.630Z,95829.38
2023-03-24T11:04:33.752Z,95834.06
2023-03-24T11:07:06.211Z,95832.69
2023-03-24T11:09:42.428Z,95839.78
2023-03-24T11:12:23.262Z,95841.28
2023-03-24T11:14:54.095Z,95839.09
2023-03-24T11:17:23.048Z,95847.91
2023-03-24T11:19:55.202Z,95852.13
2023-03-24T11:22:23.423Z,95842.56
2023-03-24T11:24:53.701Z,95850.22
2023-03-24T11:27:21.395Z,95845.88
2023-03-24T11:29:54.066Z,95849.63
2023-03-24T11:32:27.110Z,95844.38
2023-03-24T11:35:04.918Z,95847.56
2023-03-24T11:37:35.036Z,95846.09
2023-03-24T11:40:24.420Z,95845.88
2023-03-24T11:42:55.800Z,95823.81
2023-03-24T11:45:28.866Z,95828.69
2023-03-24T11:47:58.829Z,95832.13
2023-03-24T11:50:30.615Z,95843.22
2023-03-24T11:53:04.804Z,95831.09
2023-03-24T11:55:38.045Z,95845.50
2023-03-24T11:58:13.304Z,95844.69
2023-03-24T12:00:47.880Z,95843.91
2023-03-24T12:03:44.689Z,95849.06
2023-03-24T12:06:25.388Z,95834.28
2023-03-24T12:09:04.758Z,95833.13
2023-03-24T12:11:50.274Z,95828.53
2023-03-24T12:14:26.604Z,95824.47
2023-03-24T12:17:05.953Z,95830.94
2023-03-24T12:19:56.103Z,95823.16
2023-03-24T12:22:39.058Z,95828.44
2023-03-24T12:25:29.893Z,95815.72
2023-03-24T12:28:14.179Z,95826.75
2023-03-24T12:30:49.557Z,95828.31
2023-03-24T12:33:38.058Z,95819.97
2023-03-24T12:36:24.194Z,95808.66
2023-03-24T12:39:02.754Z,95822.28
2023-03-24T12:41:40.238Z,95808.47
2023-03-24T12:44:31.789Z,95814.75
2023-03-24T12:47:09.339Z,95822.91
2023-03-24T12:49:57.338Z,95813.31
2023-03-24T12:52:51.112Z,95825.31
2023-03-24T12:55:34.299Z,95828.88
2023-03-24T12:58:06.605Z,95827.31
2023-03-24T13:00:38.622Z,95822.03
2023-03-24T13:03:12.071Z,95816.31
2023-03-24T13:05:47.202Z,95813.44
2023-03-24T13:08:22.895Z,95822.13
2023-03-24T13:10:54.583Z,95824.41
2023-03-24T13:13:24.680Z,95811.53
2023-03-24T13:15:57.084Z,95812.31
2023-03-24T13:18:32.421Z,95813.09
2023-03-24T13:21:08.891Z,95815.50
2023-03-24T13:23:43.294Z,95795.97
2023-03-24T13:26:24.083Z,95820.13
2023-03-24T13:29:01.802Z,95806.06
2023-03-24T13:31:35.389Z,95798.66
2023-03-24T13:34:06.348Z,95789.63
2023-03-24T13:36:46.701Z,95788.84
2023-03-24T13:39:17.454Z,95795.91
2023-03-24T13:41:51.524Z,95788.69
2023-03-24T13:44:21.283Z,95788.94
2023-03-24T13:47:10.338Z,95788.94
2023-03-24T13:49:38.885Z,95788.94
2023-03-24T13:52:23.684Z,95785.28
2023-03-24T13:55:00.683Z,95781.59
2023-03-24T13:57:29.176Z,95781.06
2023-03-24T14:00:17.870Z,95782.06
2023-03-24T14:02:50.553Z,95792.59
2023-03-24T14:05:41.530Z,95788.94
2023-03-24T14:08:16.346Z,95798.97
2023-03-24T14:10:48.884Z,95798.97
2023-03-24T14:13:23.154Z,95790.06
2023-03-24T14:15:52.388Z,95797.84
2023-03-24T14:18:43.068Z,95799.91
2023-03-24T14:21:11.146Z,95794.31
2023-03-24T14:23:43.225Z,95811.34
2023-03-24T14:26:14.900Z,95811.03
2023-03-24T14:28:44.377Z,95807.28
2023-03-24T14:31:24.369Z,95815.94
2023-03-24T14:34:10.613Z,95815.94
2023-03-24T14:36:40.363Z,95820.63
2023-03-24T14:39:12.470Z,95824.75
2023-03-24T14:41:44.287Z,95829.91
2023-03-24T14:44:12.636Z,95835.59
2023-03-24T14:46:42.563Z,95842.03
2023-03-24T14:49:27.800Z,95857.00
2023-03-24T14:51:59.816Z,95858.84
2023-03-24T14:54:35.264Z,95855.81
2023-03-24T14:57:04.550Z,95856.06
2023-03-24T14:59:40.693Z,95862.75
2023-03-24T15:02:23.889Z,95879.63
2023-03-24T15:05:16.321Z,95877.88
2023-03-24T15:07:46.855Z,95881.97
2023-03-24T15:10:17.803Z,95887.44
2023-03-24T15:12:46.310Z,95884.00
2023-03-24T15:15:16.671Z,95886.28
2023-03-24T15:17:45.047Z,95893.41
2023-03-24T15:20:22.910Z,95904.19
2023-03-24T15:22:51.751Z,95895.59
2023-03-24T15:25:20.591Z,95893.66
2023-03-24T15:27:52.461Z,95888.50
2023-03-24T15:30:20.253Z,95896.06
2023-03-24T15:32:49.338Z,95897.72
2023-03-24T15:35:20.059Z,95905.13
2023-03-24T15:37:52.633Z,95904.34
2023-03-24T15:40:34.856Z,95902.53
2023-03-24T15:43:04.521Z,95892.63
2023-03-24T15:45:33.962Z,95891.44
2023-03-24T15:48:06.223Z,95873.66
2023-03-24T15:50:36.365Z,95864.59
2023-03-24T15:53:07.781Z,95866.31
2023-03-24T15:55:37.854Z,95853.03
2023-03-24T15:58:22.915Z,95878.81
2023-03-24T16:00:53.632Z,95870.13
2023-03-24T16:03:26.328Z,95867.91
2023-03-24T16:05:55.819Z,95871.91
2023-03-24T16:08:28.382Z,95870.66
2023-03-24T16:11:04.224Z,95873.94
2023-03-24T16:13:32.074Z,95874.56
2023-03-24T16:16:01.390Z,95869.53
2023-03-24T16:18:33.015Z,95871.56
2023-03-24T16:21:02.247Z,95878.41
2023-03-24T16:23:30.511Z,95878.84
2023-03-24T16:25:58.010Z,95879.41
2023-03-24T16:28:27.625Z,95885.91
2023-03-24T16:31:00.939Z,95880.91
2023-03-24T16:33:31.666Z,95884.53
2023-03-24T16:35:59.705Z,95898.69
2023-03-24T16:38:27.974Z,95903.75
2023-03-24T16:40:57.581Z,95899.91
2023-03-24T16:43:27.364Z,95891.63
2023-03-24T16:45:56.420Z,95895.22
2023-03-24T16:48:23.959Z,95883.94
2023-03-24T16:50:53.439Z,95893.28
2023-03-24T16:53:21.330Z,95893.53
2023-03-24T16:55:48.942Z,95884.50
2023-03-24T16:58:18.214Z,95889.16
2023-03-24T17:00:45.997Z,95881.75
2023-03-24T17:03:14.970Z,95893.44
2023-03-24T17:05:46.482Z,95892.19
2023-03-24T17:08:14.584Z,95893.78
2023-03-24T17:10:44.395Z,95894.38
2023-03-24T17:13:18.157Z,95883.72
2023-03-24T17:15:45.774Z,95876.47
2023-03-24T17:18:15.086Z,95881.50
2023-03-24T17:20:42.665Z,95868.84
2023-03-24T17:23:13.023Z,95857.59
2023-03-24T17:25:40.759Z,95849.97
2023-03-24T17:28:13.962Z,95850.16
2023-03-24T17:30:41.529Z,95850.75
2023-03-24T17:33:13.215Z,95859.63
2023-03-24T17:35:45.092Z,95859.41
2023-03-24T17:38:14.353Z,95865.25
2023-03-24T17:40:41.990Z,95866.25
2023-03-24T17:43:09.628Z,95863.25
2023-03-24T17:45:37.091Z,95856.84
2023-03-24T17:48:04.983Z,95854.44
2023-03-24T17:50:33.101Z,95857.06
2023-03-24T17:53:01.987Z,95853.66
2023-03-24T17:55:29.581Z,95862.94
2023-03-24T17:57:57.095Z,95857.69
2023-03-24T18:00:24.633Z,95851.03
2023-03-24T18:02:52.626Z,95852.81
2023-03-24T18:05:20.420Z,95863.53
2023-03-24T18:07:48.149Z,95864.94
2023-03-24T18:10:17.184Z,95871.78
2023-03-24T18:12:45.272Z,95868.56
2023-03-24T18:15:13.095Z,95866.00
2023-03-24T18:17:40.722Z,95878.09
2023-03-24T18:20:12.113Z,95882.16
2023-03-24T18:22:40.998Z,95887.63
2023-03-24T18:25:10.056Z,95887.66
2023-03-24T18:27:39.574Z,95891.09
2023-03-24T18:30:09.474Z,95885.31
2023-03-24T18:32:38.822Z,95889.75
2023-03-24T18:35:08.233Z,95904.84
2023-03-24T18:37:36.205Z,95907.47
2023-03-24T18:40:07.271Z,95906.69
2023-03-24T18:42:34.971Z,95912.91
2023-03-24T18:45:04.590Z,95915.94
2023-03-24T18:47:32.186Z,95905.50
2023-03-24T18:49:59.794Z,95910.13
2023-03-24T18:52:27.367Z,95906.31
2023-03-24T18:54:55.724Z,95907.13
2023-03-24T18:57:23.211Z,95907.94
2023-03-24T18:59:50.735Z,95917.19
2023-03-24T19:02:19.748Z,95920.41
2023-03-24T19:04:48.192Z,95921.63
2023-03-24T19:07:16.416Z,95919.19
2023-03-24T19:09:44.334Z,95927.03
2023-03-24T19:12:15.164Z,95930.47
2023-03-24T19:14:43.536Z,95935.09
2023-03-24T19:17:11.069Z,95923.44
2023-03-24T19:19:41.940Z,95931.25
2023-03-24T19:22:09.468Z,95935.47
2023-03-24T19:24:36.998Z,95939.50
2023-03-24T19:27:04.611Z,95941.28
2023-03-24T19:29:32.120Z,95936.66
2023-03-24T19:31:59.643Z,95943.50
2023-03-24T19:34:27.347Z,95959.16
2023-03-24T19:36:56.667Z,95950.91
2023-03-24T19:39:26.173Z,95947.91
2023-03-24T19:41:54.512Z,95951.28
2023-03-24T19:44:22.432Z,95946.84
2023-03-24T19:46:50.262Z,95950.06
2023-03-24T19:49:18.905Z,95949.06
2023-03-24T19:51:47.257Z,95950.84
2023-03-24T19:54:16.111Z,95956.50
2023-03-24T19:56:43.655Z,95954.69
2023-03-24T19:59:11.284Z,95946.84
2023-03-24T20:01:38.900Z,95942.22
2023-03-24T20:04:06.747Z,95943.84
2023-03-24T20:06:34.252Z,95945.03
2023-03-24T20:09:01.778Z,95944.66
2023-03-24T20:11:30.803Z,95940.81
2023-03-24T20:13:58.894Z,95945.84
2023-03-24T20:16:26.456Z,95954.06
2023-03-24T20:18:53.993Z,95948.63
2023-03-24T20:21:23.458Z,95947.63
2023-03-24T20:23:51.058Z,95939.56
2023-03-24T20:26:18.976Z,95945.63
2023-03-24T20:28:47.907Z,95940.41
2023-03-24T20:31:15.485Z,95939.38
2023-03-24T20:33:43.015Z,95942.78
2023-03-24T20:36:10.876Z,95935.97
2023-03-24T20:38:38.972Z,95938.38
2023-03-24T20:41:08.284Z,95937.59
2023-03-24T20:43:37.837Z,95936.81
2023-03-24T20:46:09.384Z,95938.19
2023-03-24T20:48:37.255Z,95945.03
2023-03-24T20:51:05.801Z,95940.81
2023-03-24T20:53:34.890Z,95943.22
2023-03-24T20:56:06.524Z,95950.03
2023-03-24T20:58:34.942Z,95954.69
2023-03-24T21:01:07.942Z,95960.91
2023-03-24T21:03:36.228Z,95960.13
2023-03-24T21:06:04.447Z,95958.94
2023-03-24T21:08:31.958Z,95958.50
2023-03-24T21:11:00.124Z,95955.88
2023-03-24T21:13:37.003Z,95946.47
2023-03-24T21:16:08.522Z,95949.69
2023-03-24T21:18:37.015Z,95944.88
2023-03-24T21:21:05.656Z,95946.88
2023-03-24T21:23:38.993Z,95941.25
2023-03-24T21:26:08.735Z,95955.75
2023-03-24T21:28:36.287Z,95946.69
2023-03-24T21:31:10.210Z,95949.69
2023-03-24T21:33:40.567Z,95947.31
2023-03-24T21:36:09.253Z,95952.72
2023-03-24T21:38:37.517Z,95954.75
2023-03-24T21:41:05.370Z,95949.53
2023-03-24T21:43:34.934Z,95952.72
2023-03-24T21:46:04.019Z,95950.91
2023-03-24T21:48:34.883Z,95950.13
2023-03-24T21:51:03.992Z,95961.16
2023-03-24T21:53:31.976Z,95965.38
2023-03-24T21:56:04.417Z,95963.16
2023-03-24T21:58:32.516Z,95953.50
2023-03-24T22:01:00.719Z,95954.34
2023-03-24T22:03:28.830Z,95968.81
2023-03-24T22:05:58.581Z,95970.81
2023-03-24T22:08:30.461Z,95952.91
2023-03-24T22:10:58.929Z,95972.22
2023-03-24T22:13:27.289Z,95970.22
2023-03-24T22:15:56.192Z,95972.03
2023-03-24T22:18:23.866Z,95971.81
2023-03-24T22:20:56.286Z,95974.41
2023-03-24T22:23:25.229Z,95973.81
2023-03-24T22:25:53.289Z,95976.41
2023-03-24T22:28:21.091Z,95975.44
2023-03-24T22:30:48.586Z,95969.00
2023-03-24T22:33:16.175Z,95977.03
2023-03-24T22:35:43.753Z,95968.59
2023-03-24T22:38:14.911Z,95976.25
2023-03-24T22:40:44.137Z,95983.06
2023-03-24T22:43:11.729Z,95978.06
2023-03-24T22:45:39.226Z,95984.06
2023-03-24T22:48:07.362Z,95992.31
2023-03-24T22:50:35.355Z,95991.09
2023-03-24T22:53:02.921Z,95985.09
2023-03-24T22:55:30.425Z,95995.53
2023-03-24T22:57:59.386Z,95998.34
2023-03-24T23:00:27.121Z,96001.94
2023-03-24T23:02:54.978Z,95999.31
2023-03-24T23:05:22.752Z,96001.94
2023-03-24T23:07:50.383Z,96005.56
2023-03-24T23:10:18.168Z,95990.31
2023-03-24T23:12:46.311Z,95990.31
2023-03-24T23:15:17.700Z,95996.13
2023-03-24T23:17:45.935Z,96009.78
2023-03-24T23:20:15.545Z,96002.53
2023-03-24T23:22:43.096Z,95992.91
2023-03-24T23:25:13.379Z,96011.22
2023-03-24T23:27:41.292Z,96011.41
2023-03-24T23:30:11.853Z,96021.66
2023-03-24T23:32:43.539Z,96011.41
2023-03-24T23:35:12.055Z,96014.00
2023-03-24T23:37:39.805Z,96012.00
2023-03-24T23:40:12.864Z,96019.66
2023-03-24T23:42:41.669Z,96050.16
2023-03-24T23:45:14.349Z,96039.34
2023-03-24T23:47:43.683Z,96055.41
2023-03-24T23:50:12.702Z,96052.19
2023-03-24T23:52:41.282Z,96062.63
2023-03-24T23:55:10.301Z,96073.66
2023-03-24T23:57:38.330Z,96068.03
